Christina — WBJ9479 — position and weather

sailwx.info

Track history (hours):
 
Tides and Currents Weather Stations Pressure Air Temp Water Temp Dewpoint Dewpoint Depression Visibility Wind Speed Wind Dir Waves Ship Positions

Christina

Owner: WEISS, GUNTHER, PORTLAND, OR. More information available from US FCC via Universal Licensing System and Coast Guard Vessel Documentation Center.

Last reported at 2015-Jul-24 19:20 UTC. Time now 2015-Aug-04 11:39 UTC.
Position N 45°37' W 122°40'.
Warning: this ship's position is 10 days out of date.

Length 22 m.

Type: Pleasure craft. MMSI: 366324550.

Date/timePositionNaut miles runAvg speedWind from/ knotsBaromVisibWave heightAir tempDewpointWater temp
2015-Jul-24 19:20N 45°37' W 122°40'7 8.7
2015-Jul-24 18:33N 45°42' W 122°46'10 9.6
2015-Jul-24 17:33N 45°51' W 122°47'0 0.4
2015-Jul-24 16:32N 45°52' W 122°48'0 0.0
2015-Jul-24 15:32N 45°52' W 122°48'0 0.0
2015-Jul-24 14:32N 45°52' W 122°48'0 0.0
2015-Jul-24 13:29N 45°52' W 122°48'0 0.0
2015-Jul-24 12:32N 45°52' W 122°48'0 0.0
2015-Jul-24 11:32N 45°52' W 122°48'0 0.0
2015-Jul-24 10:29N 45°52' W 122°48'0 0.0
2015-Jul-24 09:23N 45°52' W 122°48'0 0.0
2015-Jul-24 08:29N 45°52' W 122°48'0 0.0
2015-Jul-24 07:32N 45°52' W 122°48'0 0.0
2015-Jul-24 06:20N 45°52' W 122°48'0 0.0
2015-Jul-24 05:32N 45°52' W 122°48'0 0.0
2015-Jul-24 04:32N 45°52' W 122°48'0 0.0
2015-Jul-24 03:32N 45°52' W 122°48'0 0.0
2015-Jul-24 02:29N 45°52' W 122°48'0 0.3
2015-Jul-24 01:33N 45°52' W 122°48'10 9.6
2015-Jul-24 00:32N 46°01' W 122°52'9 9.3
2015-Jul-23 23:33N 46°08' W 123°01'9 8.7
2015-Jul-23 22:32N 46°10' W 123°13'8 8.3
2015-Jul-23 21:31N 46°11' W 123°26'7 7.0
2015-Jul-23 20:33N 46°15' W 123°33'7 9.5
2015-Jul-23 19:48N 46°14' W 123°43'2 9.8
2015-Jul-23 19:33N 46°13' W 123°46'8 7.6
2015-Jul-23 18:34N 46°13' W 123°57'0 7.1
2015-Jul-23 18:32N 46°13' W 123°57'6 6.4
2015-Jul-23 17:32N 46°18' W 124°02'0 0.0
2015-Jul-23 16:32N 46°18' W 124°02'0 0.0
2015-Jul-23 15:32N 46°18' W 124°02'0 0.0
2015-Jul-23 14:32N 46°18' W 124°02'0 0.0
2015-Jul-23 13:35N 46°18' W 124°02'0 0.0
2015-Jul-23 13:32N 46°18' W 124°02'0 0.0
2015-Jul-23 12:50N 46°18' W 124°02'0 0.0
2015-Jul-23 12:32N 46°18' W 124°02'0 0.0
2015-Jul-23 11:32N 46°18' W 124°02'0 0.0
2015-Jul-23 10:32N 46°18' W 124°02'0 0.0
2015-Jul-23 09:32N 46°18' W 124°02'0 0.0
2015-Jul-23 08:32N 46°18' W 124°02'0 0.0
2015-Jul-23 07:29N 46°18' W 124°02'0 0.0
2015-Jul-23 06:32N 46°18' W 124°02'0 0.0
2015-Jul-23 05:32N 46°18' W 124°02'0 0.0
2015-Jul-23 04:32N 46°18' W 124°02'0 0.0
2015-Jul-23 03:32N 46°18' W 124°02'0 0.0
2015-Jul-23 02:32N 46°18' W 124°02'0 0.0
2015-Jul-23 01:32N 46°18' W 124°02'0 0.0
2015-Jul-23 00:26N 46°18' W 124°02'0 0.0
2015-Jul-22 23:32N 46°18' W 124°02'0 0.0
2015-Jul-22 22:23N 46°18' W 124°02'0 0.0
2015-Jul-22 21:32N 46°18' W 124°02'0 0.0
2015-Jul-22 20:32N 46°18' W 124°02'0 0.0
2015-Jul-22 19:29N 46°18' W 124°02'0 0.0
2015-Jul-22 18:32N 46°18' W 124°02'0 0.0
2015-Jul-22 17:29N 46°18' W 124°02'0 0.0
2015-Jul-22 16:32N 46°18' W 124°02'0 0.0
2015-Jul-22 15:32N 46°18' W 124°02'0 0.0
2015-Jul-22 14:32N 46°18' W 124°02'0 0.0
2015-Jul-22 13:32N 46°18' W 124°02'0 0.0
2015-Jul-22 12:32N 46°18' W 124°02'0 0.0
2015-Jul-22 11:32N 46°18' W 124°02'0 0.0
2015-Jul-22 10:32N 46°18' W 124°02'0 0.0
2015-Jul-22 09:29N 46°18' W 124°02'0 0.0
2015-Jul-22 08:32N 46°18' W 124°02'0 0.0
2015-Jul-22 07:32N 46°18' W 124°02'0 0.0
2015-Jul-22 06:32N 46°18' W 124°02'0 0.0
2015-Jul-22 05:32N 46°18' W 124°02'0 0.0
2015-Jul-22 04:29N 46°18' W 124°02'0 0.0
2015-Jul-22 03:32N 46°18' W 124°02'0 0.0
2015-Jul-22 02:32N 46°18' W 124°02'0 0.0
2015-Jul-22 01:29N 46°18' W 124°02'0 0.0
2015-Jul-22 00:29N 46°18' W 124°02'0 0.0
2015-Jul-21 23:32N 46°18' W 124°02'0 0.0
2015-Jul-21 22:30N 46°18' W 124°02'0 0.0
2015-Jul-21 21:29N 46°18' W 124°02'0 0.0
2015-Jul-21 20:32N 46°18' W 124°02'0 0.0
2015-Jul-21 19:33N 46°18' W 124°02'0 0.0
2015-Jul-21 18:33N 46°18' W 124°02'0 0.0
2015-Jul-21 17:33N 46°18' W 124°02'0 0.0
2015-Jul-21 16:33N 46°18' W 124°02'0 0.0
2015-Jul-21 15:33N 46°18' W 124°02'0 0.0
2015-Jul-21 15:06N 46°18' W 124°02'0 0.0
2015-Jul-21 14:33N 46°18' W 124°02'0 0.0
2015-Jul-21 13:33N 46°18' W 124°02'0 0.0
2015-Jul-21 12:33N 46°18' W 124°02'0 0.0
2015-Jul-21 11:33N 46°18' W 124°02'0 0.0
2015-Jul-21 10:30N 46°18' W 124°02'0 0.0
2015-Jul-21 10:30N 46°18' W 124°02'0 0.0
2015-Jul-21 09:33N 46°18' W 124°02'0 0.0
2015-Jul-21 08:33N 46°18' W 124°02'0 0.0
2015-Jul-21 07:33N 46°18' W 124°02'0 0.0
2015-Jul-21 06:33N 46°18' W 124°02'0 0.0
2015-Jul-21 05:33N 46°18' W 124°02'0 0.0
2015-Jul-21 04:33N 46°18' W 124°02'0 0.0
2015-Jul-21 04:09N 46°18' W 124°02'0 0.0
2015-Jul-21 03:33N 46°18' W 124°02'5 5.5
2015-Jul-21 02:33N 46°14' W 123°58'1110.7
2015-Jul-21 01:33N 46°14' W 123°43'10 9.7
2015-Jul-21 00:33N 46°16' W 123°29'5 9.0
2015-Jul-21 00:03N 46°12' W 123°26'3 7.0
2015-Jul-20 23:33N 46°09' W 123°24'8 7.6
2015-Jul-20 22:30N 46°11' W 123°12'8 8.8
2015-Jul-20 21:33N 46°08' W 123°01'10 9.5
2015-Jul-20 20:33N 46°01' W 122°52'10 9.8
2015-Jul-20 19:32N 45°51' W 122°47'10 9.3
2015-Jul-20 18:30N 45°42' W 122°46'  
Track history (hours):
 
Tides and Currents Weather Stations Pressure Air Temp Water Temp Dewpoint Dewpoint Depression Visibility Wind Speed Wind Dir Waves Ship Positions

Christina

Owner: WEISS, GUNTHER, PORTLAND, OR. More information available from US FCC via Universal Licensing System and Coast Guard Vessel Documentation Center.

Last reported at 2015-Jul-24 19:20 UTC. Time now 2015-Aug-04 11:39 UTC.
Position N 45°37' W 122°40'.
Warning: this ship's position is 10 days out of date.

Length 22 m.

Type: Pleasure craft. MMSI: 366324550.

Date/timePositionNaut miles runAvg speedWind from/ knotsBaromVisibWave heightAir tempDewpointWater temp
2015-Jul-24 19:20N 45°37' W 122°40'7 8.7
2015-Jul-24 18:33N 45°42' W 122°46'10 9.6
2015-Jul-24 17:33N 45°51' W 122°47'0 0.4
2015-Jul-24 16:32N 45°52' W 122°48'0 0.0
2015-Jul-24 15:32N 45°52' W 122°48'0 0.0
2015-Jul-24 14:32N 45°52' W 122°48'0 0.0
2015-Jul-24 13:29N 45°52' W 122°48'0 0.0
2015-Jul-24 12:32N 45°52' W 122°48'0 0.0
2015-Jul-24 11:32N 45°52' W 122°48'0 0.0
2015-Jul-24 10:29N 45°52' W 122°48'0 0.0
2015-Jul-24 09:23N 45°52' W 122°48'0 0.0
2015-Jul-24 08:29N 45°52' W 122°48'0 0.0
2015-Jul-24 07:32N 45°52' W 122°48'0 0.0
2015-Jul-24 06:20N 45°52' W 122°48'0 0.0
2015-Jul-24 05:32N 45°52' W 122°48'0 0.0
2015-Jul-24 04:32N 45°52' W 122°48'0 0.0
2015-Jul-24 03:32N 45°52' W 122°48'0 0.0
2015-Jul-24 02:29N 45°52' W 122°48'0 0.3
2015-Jul-24 01:33N 45°52' W 122°48'10 9.6
2015-Jul-24 00:32N 46°01' W 122°52'9 9.3
2015-Jul-23 23:33N 46°08' W 123°01'9 8.7
2015-Jul-23 22:32N 46°10' W 123°13'8 8.3
2015-Jul-23 21:31N 46°11' W 123°26'7 7.0
2015-Jul-23 20:33N 46°15' W 123°33'7 9.5
2015-Jul-23 19:48N 46°14' W 123°43'2 9.8
2015-Jul-23 19:33N 46°13' W 123°46'8 7.6
2015-Jul-23 18:34N 46°13' W 123°57'0 7.1
2015-Jul-23 18:32N 46°13' W 123°57'6 6.4
2015-Jul-23 17:32N 46°18' W 124°02'0 0.0
2015-Jul-23 16:32N 46°18' W 124°02'0 0.0
2015-Jul-23 15:32N 46°18' W 124°02'0 0.0
2015-Jul-23 14:32N 46°18' W 124°02'0 0.0
2015-Jul-23 13:35N 46°18' W 124°02'0 0.0
2015-Jul-23 13:32N 46°18' W 124°02'0 0.0
2015-Jul-23 12:50N 46°18' W 124°02'0 0.0
2015-Jul-23 12:32N 46°18' W 124°02'0 0.0
2015-Jul-23 11:32N 46°18' W 124°02'0 0.0
2015-Jul-23 10:32N 46°18' W 124°02'0 0.0
2015-Jul-23 09:32N 46°18' W 124°02'0 0.0
2015-Jul-23 08:32N 46°18' W 124°02'0 0.0
2015-Jul-23 07:29N 46°18' W 124°02'0 0.0
2015-Jul-23 06:32N 46°18' W 124°02'0 0.0
2015-Jul-23 05:32N 46°18' W 124°02'0 0.0
2015-Jul-23 04:32N 46°18' W 124°02'0 0.0
2015-Jul-23 03:32N 46°18' W 124°02'0 0.0
2015-Jul-23 02:32N 46°18' W 124°02'0 0.0
2015-Jul-23 01:32N 46°18' W 124°02'0 0.0
2015-Jul-23 00:26N 46°18' W 124°02'0 0.0
2015-Jul-22 23:32N 46°18' W 124°02'0 0.0
2015-Jul-22 22:23N 46°18' W 124°02'0 0.0
2015-Jul-22 21:32N 46°18' W 124°02'0 0.0
2015-Jul-22 20:32N 46°18' W 124°02'0 0.0
2015-Jul-22 19:29N 46°18' W 124°02'0 0.0
2015-Jul-22 18:32N 46°18' W 124°02'0 0.0
2015-Jul-22 17:29N 46°18' W 124°02'0 0.0
2015-Jul-22 16:32N 46°18' W 124°02'0 0.0
2015-Jul-22 15:32N 46°18' W 124°02'0 0.0
2015-Jul-22 14:32N 46°18' W 124°02'0 0.0
2015-Jul-22 13:32N 46°18' W 124°02'0 0.0
2015-Jul-22 12:32N 46°18' W 124°02'0 0.0
2015-Jul-22 11:32N 46°18' W 124°02'0 0.0
2015-Jul-22 10:32N 46°18' W 124°02'0 0.0
2015-Jul-22 09:29N 46°18' W 124°02'0 0.0
2015-Jul-22 08:32N 46°18' W 124°02'0 0.0
2015-Jul-22 07:32N 46°18' W 124°02'0 0.0
2015-Jul-22 06:32N 46°18' W 124°02'0 0.0
2015-Jul-22 05:32N 46°18' W 124°02'0 0.0
2015-Jul-22 04:29N 46°18' W 124°02'0 0.0
2015-Jul-22 03:32N 46°18' W 124°02'0 0.0
2015-Jul-22 02:32N 46°18' W 124°02'0 0.0
2015-Jul-22 01:29N 46°18' W 124°02'0 0.0
2015-Jul-22 00:29N 46°18' W 124°02'0 0.0
2015-Jul-21 23:32N 46°18' W 124°02'0 0.0
2015-Jul-21 22:30N 46°18' W 124°02'0 0.0
2015-Jul-21 21:29N 46°18' W 124°02'0 0.0
2015-Jul-21 20:32N 46°18' W 124°02'0 0.0
2015-Jul-21 19:33N 46°18' W 124°02'0 0.0
2015-Jul-21 18:33N 46°18' W 124°02'0 0.0
2015-Jul-21 17:33N 46°18' W 124°02'0 0.0
2015-Jul-21 16:33N 46°18' W 124°02'0 0.0
2015-Jul-21 15:33N 46°18' W 124°02'0 0.0
2015-Jul-21 15:06N 46°18' W 124°02'0 0.0
2015-Jul-21 14:33N 46°18' W 124°02'0 0.0
2015-Jul-21 13:33N 46°18' W 124°02'0 0.0
2015-Jul-21 12:33N 46°18' W 124°02'0 0.0
2015-Jul-21 11:33N 46°18' W 124°02'0 0.0
2015-Jul-21 10:30N 46°18' W 124°02'0 0.0
2015-Jul-21 10:30N 46°18' W 124°02'0 0.0
2015-Jul-21 09:33N 46°18' W 124°02'0 0.0
2015-Jul-21 08:33N 46°18' W 124°02'0 0.0
2015-Jul-21 07:33N 46°18' W 124°02'0 0.0
2015-Jul-21 06:33N 46°18' W 124°02'0 0.0
2015-Jul-21 05:33N 46°18' W 124°02'0 0.0
2015-Jul-21 04:33N 46°18' W 124°02'0 0.0
2015-Jul-21 04:09N 46°18' W 124°02'0 0.0
2015-Jul-21 03:33N 46°18' W 124°02'5 5.5
2015-Jul-21 02:33N 46°14' W 123°58'1110.7
2015-Jul-21 01:33N 46°14' W 123°43'10 9.7
2015-Jul-21 00:33N 46°16' W 123°29'5 9.0
2015-Jul-21 00:03N 46°12' W 123°26'3 7.0
2015-Jul-20 23:33N 46°09' W 123°24'8 7.6
2015-Jul-20 22:30N 46°11' W 123°12'8 8.8
2015-Jul-20 21:33N 46°08' W 123°01'10 9.5
2015-Jul-20 20:33N 46°01' W 122°52'10 9.8
2015-Jul-20 19:32N 45°51' W 122°47'10 9.3
2015-Jul-20 18:30N 45°42' W 122°46'  

Dump ship's entire track history